Terminal Aerodrome Forecast
Issued by NWS Twin Cities, MN

Home | Current Version | Previous Version | Text Only | Print | Product List | Glossary Off
Versions: 1 2 3 4 5 6 7 8 9 10 11 12 13 14 15 16 17 18 19

104
FTUS43 KMPX 011126
TAFSTC
TAF
KSTC 011126Z 0112/0212 33010KT P6SM SCT008 OVC012
     FM012000 31008KT P6SM SCT015 BKN025 BKN040=

USA.gov is the U.S. government's official web portal to all federal, state and local government web resources and services.